Time;durP1;ratioP1;P1;durP2;ratioP2;P2;SDS_P1;SDS_P2;PMS_P1;PMS_P2;Temp;Humidity;BMP_temperature;BMP_pressure;BME280_temperature;BME280_humidity;BME280_pressure;Samples;Min_cycle;Max_cycle;Signal;HPM_P1;HPM_P2
2023/04/02 00:01:22;;;;;;;;;;;;;;;;;;5131803;28;19907;-45
2023/04/02 00:03:52;;;;;;;;;;;;;;;;;;5133077;28;19908;-46
2023/04/02 00:06:24;;;;;;;;;;;;;;;;;;5131478;28;19915;-45
2023/04/02 00:08:53;;;;;;;;;;;;;;;;;;5133553;27;19995;-45
2023/04/02 00:11:19;;;;;;;;;;;;;;;;;;5151410;27;20052;-46
2023/04/02 00:13:45;;;;;;;;;;;;;;;;;;5139685;27;19988;-45
2023/04/02 00:16:11;;;;;;;;;;;;;;;;;;5132403;28;20413;-47
2023/04/02 00:18:37;;;;;;;;;;;;;;;;;;5132329;28;19912;-47
2023/04/02 00:21:03;;;;;;;;;;;;;;;;;;5132179;28;20283;-47
2023/04/02 00:23:29;;;;;;;;;;;;;;;;;;5131813;28;19915;-48
2023/04/02 00:25:55;;;;;;;;;;;;;;;;;;5133771;27;19950;-47
2023/04/02 00:28:21;;;;;;;;;;;;;;;;;;5148263;27;19946;-48
2023/04/02 00:30:47;;;;;;;;;;;;;;;;;;5152580;27;19914;-50
2023/04/02 00:33:13;;;;;;;;;;;;;;;;;;5155557;27;19914;-46
2023/04/02 00:35:39;;;;;;;;;;;;;;;;;;5143643;27;19916;-45
2023/04/02 00:38:05;;;;;;;;;;;;;;;;;;5136188;27;20411;-49
2023/04/02 00:40:30;;;;;;;;;;;;;;;;;;5134931;27;19908;-47
2023/04/02 00:42:56;;;;;;;;;;;;;;;;;;5139556;27;20009;-49
2023/04/02 00:45:22;;;;;;;;;;;;;;;;;;5155810;27;19907;-47
2023/04/02 00:47:48;;;;;;;;;;;;;;;;;;5156685;27;19907;-46
2023/04/02 00:50:14;;;;;;;;;;;;;;;;;;5155862;27;19907;-50
2023/04/02 00:52:40;;;;;;;;;;;;;;;;;;5156267;27;19971;-45
2023/04/02 00:55:06;;;;;;;;;;;;;;;;;;5157162;27;19907;-48
2023/04/02 00:57:32;;;;;;;;;;;;;;;;;;5150219;27;19925;-49
2023/04/02 00:59:58;;;;;;;;;;;;;;;;;;5135731;27;19922;-45
2023/04/02 01:02:25;;;;;;;;;;;;;;;;;;5134428;27;19911;-45
2023/04/02 01:04:50;;;;;;;;;;;;;;;;;;5134581;27;19912;-46
2023/04/02 01:07:16;;;;;;;;;;;;;;;;;;5134441;27;19915;-45
2023/04/02 01:09:42;;;;;;;;;;;;;;;;;;5142729;27;19911;-47
2023/04/02 01:12:08;;;;;;;;;;;;;;;;;;5143026;27;20413;-47
2023/04/02 01:14:35;;;;;;;;;;;;;;;;;;5143548;27;20347;-45
2023/04/02 01:17:01;;;;;;;;;;;;;;;;;;5122902;27;20284;-44
2023/04/02 01:19:27;;;;;;;;;;;;;;;;;;5142836;27;19911;-46
2023/04/02 01:21:54;;;;;;;;;;;;;;;;;;5145021;27;19981;-47
2023/04/02 01:24:20;;;;;;;;;;;;;;;;;;5143356;27;20241;-44
2023/04/02 01:26:45;;;;;;;;;;;;;;;;;;5143362;27;19925;-46
2023/04/02 01:29:12;;;;;;;;;;;;;;;;;;5145128;27;19930;-48
2023/04/02 01:31:38;;;;;;;;;;;;;;;;;;5141988;27;19911;-45
2023/04/02 01:34:04;;;;;;;;;;;;;;;;;;5145038;27;20375;-46
2023/04/02 01:36:30;;;;;;;;;;;;;;;;;;5140460;27;19915;-47
2023/04/02 01:38:56;;;;;;;;;;;;;;;;;;5143210;27;19911;-49
2023/04/02 01:41:22;;;;;;;;;;;;;;;;;;5140691;27;19915;-46
2023/04/02 01:43:48;;;;;;;;;;;;;;;;;;5144893;27;19915;-46
2023/04/02 01:46:14;;;;;;;;;;;;;;;;;;5142253;27;19911;-48
2023/04/02 01:48:40;;;;;;;;;;;;;;;;;;5138355;27;20386;-45
2023/04/02 01:51:06;;;;;;;;;;;;;;;;;;5144098;27;19911;-45
2023/04/02 01:53:32;;;;;;;;;;;;;;;;;;5142261;27;20161;-46
2023/04/02 01:55:58;;;;;;;;;;;;;;;;;;5143674;27;19961;-47
2023/04/02 01:58:26;;;;;;;;;;;;;;;;;;5142795;27;20382;-45
2023/04/02 02:00:52;;;;;;;;;;;;;;;;;;5140556;27;20344;-46
2023/04/02 02:03:17;;;;;;;;;;;;;;;;;;5143435;27;19997;-47
2023/04/02 02:05:43;;;;;;;;;;;;;;;;;;5141221;27;19916;-48
2023/04/02 02:08:09;;;;;;;;;;;;;;;;;;5144383;27;19907;-45
2023/04/02 02:10:35;;;;;;;;;;;;;;;;;;5141423;27;20586;-44
2023/04/02 02:13:01;;;;;;;;;;;;;;;;;;5143236;27;19911;-47
2023/04/02 02:15:27;;;;;;;;;;;;;;;;;;5142609;27;19911;-45
2023/04/02 02:17:53;;;;;;;;;;;;;;;;;;5139891;27;20375;-44
2023/04/02 02:20:19;;;;;;;;;;;;;;;;;;5142386;27;19907;-45
2023/04/02 02:22:44;;;;;;;;;;;;;;;;;;5137333;27;19915;-46
2023/04/02 02:25:10;;;;;;;;;;;;;;;;;;5134217;27;20305;-44
2023/04/02 02:27:36;;;;;;;;;;;;;;;;;;5132861;27;20001;-45
2023/04/02 02:30:02;;;;;;;;;;;;;;;;;;5134331;27;19914;-50
2023/04/02 02:32:28;;;;;;;;;;;;;;;;;;5132803;27;20272;-46
2023/04/02 02:34:54;;;;;;;;;;;;;;;;;;5135228;27;19919;-44
2023/04/02 02:37:20;;;;;;;;;;;;;;;;;;5153554;27;19911;-46
2023/04/02 02:39:46;;;;;;;;;;;;;;;;;;5154273;27;19911;-46
2023/04/02 02:42:11;;;;;;;;;;;;;;;;;;5150798;27;20003;-46
2023/04/02 02:44:37;;;;;;;;;;;;;;;;;;5138267;27;19926;-45
2023/04/02 02:47:03;;;;;;;;;;;;;;;;;;5132731;27;20276;-49
2023/04/02 02:49:29;;;;;;;;;;;;;;;;;;5118261;27;19959;-45
2023/04/02 02:51:55;;;;;;;;;;;;;;;;;;5112885;28;20335;-44
2023/04/02 02:54:21;;;;;;;;;;;;;;;;;;5112358;28;19912;-46
2023/04/02 02:56:47;;;;;;;;;;;;;;;;;;5111516;28;20352;-48
2023/04/02 02:59:13;;;;;;;;;;;;;;;;;;5112865;28;20253;-46
2023/04/02 03:01:39;;;;;;;;;;;;;;;;;;5128900;27;20002;-46
2023/04/02 03:04:05;;;;;;;;;;;;;;;;;;5133697;27;19917;-47
2023/04/02 03:06:31;;;;;;;;;;;;;;;;;;5130254;27;20305;-45
2023/04/02 03:08:57;;;;;;;;;;;;;;;;;;5133130;27;19907;-44
2023/04/02 03:11:23;;;;;;;;;;;;;;;;;;5132390;27;19908;-45
2023/04/02 03:13:48;;;;;;;;;;;;;;;;;;5119638;27;19908;-46
2023/04/02 03:16:14;;;;;;;;;;;;;;;;;;5112050;28;19923;-47
2023/04/02 03:18:40;;;;;;;;;;;;;;;;;;5113064;28;19954;-46
2023/04/02 03:21:06;;;;;;;;;;;;;;;;;;5112413;28;19959;-46
2023/04/02 03:23:32;;;;;;;;;;;;;;;;;;5112140;28;19911;-45
2023/04/02 03:25:58;;;;;;;;;;;;;;;;;;5112189;28;20002;-46
2023/04/02 03:28:24;;;;;;;;;;;;;;;;;;5111889;28;19908;-47
2023/04/02 03:30:50;;;;;;;;;;;;;;;;;;5111495;28;20458;-44
2023/04/02 03:33:16;;;;;;;;;;;;;;;;;;5111657;28;19907;-48
2023/04/02 03:35:42;;;;;;;;;;;;;;;;;;5112669;28;19958;-46
2023/04/02 03:38:08;;;;;;;;;;;;;;;;;;5122531;28;19966;-45
2023/04/02 03:40:34;;;;;;;;;;;;;;;;;;5111189;28;19911;-46
2023/04/02 03:43:00;;;;;;;;;;;;;;;;;;5112723;28;19908;-46
2023/04/02 03:45:25;;;;;;;;;;;;;;;;;;5111215;28;20307;-46
2023/04/02 03:47:51;;;;;;;;;;;;;;;;;;5112836;27;19934;-44
2023/04/02 03:50:17;;;;;;;;;;;;;;;;;;5132318;28;19908;-49
2023/04/02 03:52:43;;;;;;;;;;;;;;;;;;5133120;28;19998;-45
2023/04/02 03:55:09;;;;;;;;;;;;;;;;;;5147690;27;20386;-45
2023/04/02 03:57:35;;;;;;;;;;;;;;;;;;5152284;27;19919;-44
2023/04/02 04:00:01;;;;;;;;;;;;;;;;;;5153709;27;19952;-46
2023/04/02 04:02:27;;;;;;;;;;;;;;;;;;5131061;27;19957;-45
2023/04/02 04:04:53;;;;;;;;;;;;;;;;;;5133097;28;20424;-45
2023/04/02 04:07:19;;;;;;;;;;;;;;;;;;5132298;27;19907;-45
2023/04/02 04:09:45;;;;;;;;;;;;;;;;;;5139391;27;20373;-45
2023/04/02 04:12:11;;;;;;;;;;;;;;;;;;5156938;27;19907;-47
2023/04/02 04:14:37;;;;;;;;;;;;;;;;;;5157001;27;19911;-45
2023/04/02 04:17:08;;;;;;;;;;;;;;;;;;5156979;27;19911;-48
2023/04/02 04:19:34;;;;;;;;;;;;;;;;;;5156663;27;20014;-45
2023/04/02 04:21:59;;;;;;;;;;;;;;;;;;5157016;27;20319;-48
2023/04/02 04:24:25;;;;;;;;;;;;;;;;;;5156723;27;19911;-51
2023/04/02 04:26:53;;;;;;;;;;;;;;;;;;5154261;27;19965;-45
2023/04/02 04:29:18;;;;;;;;;;;;;;;;;;5155579;27;20407;-48
2023/04/02 04:31:45;;;;;;;;;;;;;;;;;;5154753;27;19978;-50
2023/04/02 04:34:11;;;;;;;;;;;;;;;;;;5157309;27;19959;-47
2023/04/02 04:36:40;;;;;;;;;;;;;;;;;;5155827;27;19915;-45
2023/04/02 04:39:06;;;;;;;;;;;;;;;;;;5157216;27;19963;-46
2023/04/02 04:41:32;;;;;;;;;;;;;;;;;;5155685;27;19911;-47
2023/04/02 04:43:58;;;;;;;;;;;;;;;;;;5156890;27;20252;-47
2023/04/02 04:46:24;;;;;;;;;;;;;;;;;;5150008;27;20382;-46
2023/04/02 04:48:49;;;;;;;;;;;;;;;;;;5156540;27;19919;-49
2023/04/02 04:51:15;;;;;;;;;;;;;;;;;;5155264;27;19907;-48
2023/04/02 04:53:41;;;;;;;;;;;;;;;;;;5156842;27;19908;-47
2023/04/02 04:56:07;;;;;;;;;;;;;;;;;;5156314;27;19961;-48
2023/04/02 04:58:33;;;;;;;;;;;;;;;;;;5156120;27;19967;-46
2023/04/02 05:00:59;;;;;;;;;;;;;;;;;;5146467;27;19911;-45
2023/04/02 05:03:25;;;;;;;;;;;;;;;;;;5135316;27;19959;-50
2023/04/02 05:05:51;;;;;;;;;;;;;;;;;;5135293;27;19998;-47
2023/04/02 05:08:16;;;;;;;;;;;;;;;;;;5134691;27;19907;-49
2023/04/02 05:10:42;;;;;;;;;;;;;;;;;;5134412;27;19918;-50
2023/04/02 05:13:08;;;;;;;;;;;;;;;;;;5143467;27;19907;-49
2023/04/02 05:15:34;;;;;;;;;;;;;;;;;;5155135;27;20026;-50
2023/04/02 05:18:00;;;;;;;;;;;;;;;;;;5149516;27;19920;-48
2023/04/02 05:20:26;;;;;;;;;;;;;;;;;;5134142;27;19911;-49
2023/04/02 05:22:52;;;;;;;;;;;;;;;;;;5135555;27;20006;-48
2023/04/02 05:25:18;;;;;;;;;;;;;;;;;;5137545;27;20283;-48
2023/04/02 05:27:44;;;;;;;;;;;;;;;;;;5156028;27;19907;-47
2023/04/02 05:30:10;;;;;;;;;;;;;;;;;;5154133;27;19954;-46
2023/04/02 05:32:36;;;;;;;;;;;;;;;;;;5133794;27;19950;-51
2023/04/02 05:35:05;;;;;;;;;;;;;;;;;;5135246;27;19908;-46
2023/04/02 05:37:31;;;;;;;;;;;;;;;;;;5149038;27;19990;-47
2023/04/02 05:39:57;;;;;;;;;;;;;;;;;;5156020;27;19911;-47
2023/04/02 05:42:23;;;;;;;;;;;;;;;;;;5154495;27;19964;-49
2023/04/02 05:44:49;;;;;;;;;;;;;;;;;;5155698;27;20364;-46
2023/04/02 05:47:14;;;;;;;;;;;;;;;;;;5134630;27;19916;-46
2023/04/02 05:49:40;;;;;;;;;;;;;;;;;;5118481;27;19974;-47
2023/04/02 05:52:06;;;;;;;;;;;;;;;;;;5113742;28;19915;-45
2023/04/02 05:54:32;;;;;;;;;;;;;;;;;;5119472;27;20466;-49
2023/04/02 05:56:58;;;;;;;;;;;;;;;;;;5134386;27;19911;-45
2023/04/02 05:59:24;;;;;;;;;;;;;;;;;;5134229;27;19937;-48
2023/04/02 06:01:50;;;;;;;;;;;;;;;;;;5133588;27;19919;-47
2023/04/02 06:04:16;;;;;;;;;;;;;;;;;;5133815;27;19912;-49
2023/04/02 06:06:42;;;;;;;;;;;;;;;;;;5131524;27;19912;-47
2023/04/02 06:09:08;;;;;;;;;;;;;;;;;;5134667;27;20006;-47
2023/04/02 06:11:33;;;;;;;;;;;;;;;;;;5126726;27;20797;-46
2023/04/02 06:13:59;;;;;;;;;;;;;;;;;;5134255;27;19914;-50
2023/04/02 06:16:25;;;;;;;;;;;;;;;;;;5133197;27;19918;-46
2023/04/02 06:18:51;;;;;;;;;;;;;;;;;;5134374;27;20326;-48
2023/04/02 06:21:17;;;;;;;;;;;;;;;;;;5132943;27;19911;-46
2023/04/02 06:23:43;;;;;;;;;;;;;;;;;;5134381;27;20352;-49
2023/04/02 06:26:09;;;;;;;;;;;;;;;;;;5134225;27;19955;-45
2023/04/02 06:28:35;;;;;;;;;;;;;;;;;;5127200;27;20506;-47
2023/04/02 06:31:01;;;;;;;;;;;;;;;;;;5121101;27;19957;-46
2023/04/02 06:33:27;;;;;;;;;;;;;;;;;;5112732;28;19908;-50
2023/04/02 06:35:53;;;;;;;;;;;;;;;;;;5131423;27;20020;-48
2023/04/02 06:38:19;;;;;;;;;;;;;;;;;;5133064;27;19923;-46
2023/04/02 06:40:44;;;;;;;;;;;;;;;;;;5133631;27;20405;-46
2023/04/02 06:43:10;;;;;;;;;;;;;;;;;;5133519;27;19908;-46
2023/04/02 06:45:38;;;;;;;;;;;;;;;;;;5132512;27;20614;-48
2023/04/02 06:48:04;;;;;;;;;;;;;;;;;;5133110;27;19914;-48
2023/04/02 06:50:30;;;;;;;;;;;;;;;;;;5132317;27;19907;-50
2023/04/02 06:52:56;;;;;;;;;;;;;;;;;;5130886;27;19911;-49
2023/04/02 06:55:22;;;;;;;;;;;;;;;;;;5140024;27;19919;-46
2023/04/02 06:57:48;;;;;;;;;;;;;;;;;;5138909;27;19923;-45
2023/04/02 07:00:14;;;;;;;;;;;;;;;;;;5139641;27;19911;-50
2023/04/02 07:02:40;;;;;;;;;;;;;;;;;;5143847;27;19934;-47
2023/04/02 07:05:07;;;;;;;;;;;;;;;;;;5138720;27;19911;-48
2023/04/02 07:07:33;;;;;;;;;;;;;;;;;;5135715;27;19911;-49
2023/04/02 07:09:59;;;;;;;;;;;;;;;;;;5132444;27;19982;-46
2023/04/02 07:12:25;;;;;;;;;;;;;;;;;;5132968;27;19908;-46
2023/04/02 07:14:51;;;;;;;;;;;;;;;;;;5150523;27;19976;-47
2023/04/02 07:17:17;;;;;;;;;;;;;;;;;;5146859;27;20329;-47
2023/04/02 07:19:47;;;;;;;;;;;;;;;;;;5145256;27;19907;-46
2023/04/02 07:22:13;;;;;;;;;;;;;;;;;;5131020;27;19946;-47
2023/04/02 07:24:39;;;;;;;;;;;;;;;;;;5152032;27;19947;-49
2023/04/02 07:27:05;;;;;;;;;;;;;;;;;;5138495;27;20344;-49
2023/04/02 07:29:31;;;;;;;;;;;;;;;;;;5131885;27;19956;-47
2023/04/02 07:31:57;;;;;;;;;;;;;;;;;;5138095;27;19944;-47
2023/04/02 07:34:23;;;;;;;;;;;;;;;;;;5125635;27;20387;-46
2023/04/02 07:36:49;;;;;;;;;;;;;;;;;;5139738;27;19923;-47
2023/04/02 07:39:15;;;;;;;;;;;;;;;;;;5131857;28;19918;-49
2023/04/02 07:41:41;;;;;;;;;;;;;;;;;;5131425;27;19907;-46
2023/04/02 07:44:07;;;;;;;;;;;;;;;;;;5136167;27;19907;-48
2023/04/02 07:46:33;;;;;;;;;;;;;;;;;;5134850;27;20008;-46
2023/04/02 07:48:59;;;;;;;;;;;;;;;;;;5136377;27;19919;-49
2023/04/02 07:51:25;;;;;;;;;;;;;;;;;;5133536;27;19933;-46
2023/04/02 07:53:54;;;;;;;;;;;;;;;;;;5136273;27;19907;-49
2023/04/02 07:56:20;;;;;;;;;;;;;;;;;;5134323;27;19921;-47
2023/04/02 07:58:46;;;;;;;;;;;;;;;;;;5136331;27;20276;-44
2023/04/02 08:01:12;;;;;;;;;;;;;;;;;;5135165;27;19907;-45
2023/04/02 08:03:38;;;;;;;;;;;;;;;;;;5148341;27;19934;-45
2023/04/02 08:06:05;;;;;;;;;;;;;;;;;;5153673;27;19921;-47
2023/04/02 08:08:31;;;;;;;;;;;;;;;;;;5134998;27;19908;-46
2023/04/02 08:10:57;;;;;;;;;;;;;;;;;;5146745;27;19911;-48
2023/04/02 08:13:23;;;;;;;;;;;;;;;;;;5145021;27;19907;-47
2023/04/02 08:15:48;;;;;;;;;;;;;;;;;;5153186;27;19907;-49
2023/04/02 08:18:14;;;;;;;;;;;;;;;;;;5134418;27;20261;-49
2023/04/02 08:20:41;;;;;;;;;;;;;;;;;;5134237;27;19994;-45
2023/04/02 08:23:07;;;;;;;;;;;;;;;;;;5141764;27;19914;-47
2023/04/02 08:25:33;;;;;;;;;;;;;;;;;;5154419;27;19990;-49
2023/04/02 08:28:00;;;;;;;;;;;;;;;;;;5135776;27;20045;-51
2023/04/02 08:30:26;;;;;;;;;;;;;;;;;;5133855;27;20144;-46
2023/04/02 08:32:52;;;;;;;;;;;;;;;;;;5134778;27;19994;-49
2023/04/02 08:35:18;;;;;;;;;;;;;;;;;;5133560;27;19908;-51
2023/04/02 08:37:44;;;;;;;;;;;;;;;;;;5135142;27;19919;-46
2023/04/02 08:40:09;;;;;;;;;;;;;;;;;;5135247;27;19912;-48
2023/04/02 08:42:35;;;;;;;;;;;;;;;;;;5133773;27;20018;-47
2023/04/02 08:45:05;;;;;;;;;;;;;;;;;;5134948;27;19908;-47
2023/04/02 08:47:35;;;;;;;;;;;;;;;;;;5146230;27;19907;-45
2023/04/02 08:50:01;;;;;;;;;;;;;;;;;;5134069;27;19915;-47
2023/04/02 08:52:27;;;;;;;;;;;;;;;;;;5133380;27;20261;-49
2023/04/02 08:54:55;;;;;;;;;;;;;;;;;;5135482;27;19967;-48
2023/04/02 08:57:20;;;;;;;;;;;;;;;;;;5147546;27;19915;-45
2023/04/02 08:59:46;;;;;;;;;;;;;;;;;;5148550;27;19907;-45
2023/04/02 09:02:12;;;;;;;;;;;;;;;;;;5139714;27;19933;-49
2023/04/02 09:04:40;;;;;;;;;;;;;;;;;;5133514;27;19916;-46
2023/04/02 09:07:06;;;;;;;;;;;;;;;;;;5133744;27;20257;-45
2023/04/02 09:09:33;;;;;;;;;;;;;;;;;;5134203;27;19987;-45
2023/04/02 09:12:01;;;;;;;;;;;;;;;;;;5145701;27;19907;-47
2023/04/02 09:14:27;;;;;;;;;;;;;;;;;;5134823;27;19908;-45
2023/04/02 09:16:53;;;;;;;;;;;;;;;;;;5133961;27;20003;-46
2023/04/02 09:19:19;;;;;;;;;;;;;;;;;;5131694;27;19919;-49
2023/04/02 09:21:45;;;;;;;;;;;;;;;;;;5132642;27;19919;-46
2023/04/02 09:24:14;;;;;;;;;;;;;;;;;;5133846;27;20314;-45
2023/04/02 09:26:40;;;;;;;;;;;;;;;;;;5142730;27;19907;-49
2023/04/02 09:29:06;;;;;;;;;;;;;;;;;;5155111;27;19913;-46
2023/04/02 09:31:32;;;;;;;;;;;;;;;;;;5144608;27;19908;-46
2023/04/02 09:33:58;;;;;;;;;;;;;;;;;;5133904;27;19911;-45
2023/04/02 09:36:24;;;;;;;;;;;;;;;;;;5132107;27;19923;-47
2023/04/02 09:38:50;;;;;;;;;;;;;;;;;;5134311;27;19914;-45
2023/04/02 09:41:15;;;;;;;;;;;;;;;;;;5138403;27;20283;-50
2023/04/02 09:43:44;;;;;;;;;;;;;;;;;;5154834;27;19907;-45
2023/04/02 09:46:10;;;;;;;;;;;;;;;;;;5142818;27;19998;-45
2023/04/02 09:48:38;;;;;;;;;;;;;;;;;;5126012;27;20059;-46
2023/04/02 09:51:03;;;;;;;;;;;;;;;;;;5115945;27;20390;-48
2023/04/02 09:53:29;;;;;;;;;;;;;;;;;;5133257;27;19907;-48
2023/04/02 09:55:55;;;;;;;;;;;;;;;;;;5129278;27;19911;-50
2023/04/02 09:58:21;;;;;;;;;;;;;;;;;;5111793;28;19918;-47
2023/04/02 10:00:47;;;;;;;;;;;;;;;;;;5114331;27;20048;-50
2023/04/02 10:03:13;;;;;;;;;;;;;;;;;;5133301;27;19908;-53
2023/04/02 10:05:40;;;;;;;;;;;;;;;;;;5112988;27;19981;-48
2023/04/02 10:08:06;;;;;;;;;;;;;;;;;;5112850;28;20307;-50
2023/04/02 10:10:31;;;;;;;;;;;;;;;;;;5111267;27;19926;-50
2023/04/02 10:12:58;;;;;;;;;;;;;;;;;;5119655;27;19915;-49
2023/04/02 10:15:24;;;;;;;;;;;;;;;;;;5128237;27;19919;-49
2023/04/02 10:17:50;;;;;;;;;;;;;;;;;;5112863;28;19911;-51
2023/04/02 10:20:16;;;;;;;;;;;;;;;;;;5112966;28;19912;-52
2023/04/02 10:22:42;;;;;;;;;;;;;;;;;;5113004;28;20348;-49
